Time;durP1;ratioP1;P1;durP2;ratioP2;P2;SDS_P1;SDS_P2;PMS_P1;PMS_P2;Temp;Humidity;BMP_temperature;BMP_pressure;BME280_temperature;BME280_humidity;BME280_pressure;Samples;Min_cycle;Max_cycle;Signal;HPM_P1;HPM_P2
2024/04/01 00:01:11;;;;;;;10.05;7.13;;;;;;;;;;2053358;28;20461;-88
2024/04/01 00:02:30;;;;;;;9.27;6.85;;;;;;;;;;2057919;28;20054;-88
2024/04/01 00:03:52;;;;;;;12.20;6.80;;;;;;;;;;2060555;28;20035;-88
2024/04/01 00:05:12;;;;;;;7.85;7.18;;;;;;;;;;2051799;28;20031;-88
2024/04/01 00:06:31;;;;;;;9.93;7.20;;;;;;;;;;2049680;28;20498;-87
2024/04/01 00:09:45;;;;;;;;;;;;;;;;;;;;;
2024/04/01 00:11:12;;;;;;;8.23;6.82;;;;;;;;;;2061086;28;20468;-88
2024/04/01 00:12:31;;;;;;;11.90;7.35;;;;;;;;;;2053341;28;20030;-88
2024/04/01 00:13:51;;;;;;;9.30;6.78;;;;;;;;;;2051887;28;20039;-89
2024/04/01 00:15:10;;;;;;;8.48;6.55;;;;;;;;;;2050747;28;20014;-89
2024/04/01 00:16:30;;;;;;;8.30;6.07;;;;;;;;;;2057928;28;20030;-88
2024/04/01 00:18:05;;;;;;;7.20;6.45;;;;;;;;;;2064766;28;20026;-90
2024/04/01 00:19:45;;;;;;;;;;;;;;;;;;;;;
2024/04/01 00:21:13;;;;;;;10.63;6.32;;;;;;;;;;2062852;28;20026;-89
2024/04/01 00:22:34;;;;;;;8.55;6.18;;;;;;;;;;2054745;28;20019;-87
2024/04/01 00:24:05;;;;;;;12.10;6.55;;;;;;;;;;2060077;28;20034;-88
2024/04/01 00:25:26;;;;;;;6.57;5.88;;;;;;;;;;2061503;28;20038;-87
2024/04/01 00:26:46;;;;;;;6.68;5.65;;;;;;;;;;2054684;28;20035;-87
2024/04/01 00:28:06;;;;;;;8.35;6.63;;;;;;;;;;2058607;28;20039;-85
2024/04/01 00:29:34;;;;;;;11.10;6.63;;;;;;;;;;2055436;28;20043;-89
2024/04/01 00:30:55;;;;;;;7.50;6.45;;;;;;;;;;2060566;28;20034;-88
2024/04/01 00:32:20;;;;;;;8.80;6.40;;;;;;;;;;2061308;28;20043;-88
2024/04/01 00:33:55;;;;;;;6.80;6.15;;;;;;;;;;2055024;28;20027;-87
2024/04/01 00:35:17;;;;;;;8.57;6.57;;;;;;;;;;2052015;28;20062;-89
2024/04/01 00:36:36;;;;;;;16.58;6.50;;;;;;;;;;2053725;28;20018;-89
2024/04/01 00:37:55;;;;;;;7.85;6.03;;;;;;;;;;2058181;28;20026;-87
2024/04/01 00:39:14;;;;;;;8.43;5.90;;;;;;;;;;2063875;28;20034;-89
2024/04/01 00:40:36;;;;;;;7.22;6.15;;;;;;;;;;2055155;28;20042;-85
2024/04/01 00:41:58;;;;;;;6.88;6.18;;;;;;;;;;2053846;28;20185;-89
2024/04/01 00:43:20;;;;;;;8.75;6.38;;;;;;;;;;2052609;28;20035;-90
2024/04/01 00:44:39;;;;;;;7.90;6.43;;;;;;;;;;2060084;28;20057;-87
2024/04/01 00:45:58;;;;;;;8.65;6.70;;;;;;;;;;2062488;28;20030;-85
2024/04/01 00:47:17;;;;;;;10.10;6.55;;;;;;;;;;2062911;28;20026;-89
2024/04/01 00:48:36;;;;;;;8.23;6.40;;;;;;;;;;2055649;28;20034;-88
2024/04/01 00:49:58;;;;;;;9.80;6.45;;;;;;;;;;2052007;28;20026;-89
2024/04/01 00:51:18;;;;;;;7.63;5.97;;;;;;;;;;2052785;28;20058;-88
2024/04/01 00:52:40;;;;;;;6.85;6.20;;;;;;;;;;2052869;28;20043;-84
2024/04/01 00:54:02;;;;;;;8.43;6.13;;;;;;;;;;2054478;28;20043;-89
2024/04/01 00:55:22;;;;;;;8.93;6.45;;;;;;;;;;2054903;28;20485;-89
2024/04/01 00:56:46;;;;;;;10.40;6.00;;;;;;;;;;2054423;28;20034;-86
2024/04/01 00:58:08;;;;;;;9.05;6.22;;;;;;;;;;2049884;28;20031;-88
2024/04/01 00:59:28;;;;;;;7.18;6.20;;;;;;;;;;2052821;28;20030;-87
2024/04/01 01:00:48;;;;;;;8.60;6.18;;;;;;;;;;2050475;28;20026;-87
2024/04/01 01:02:07;;;;;;;8.15;6.25;;;;;;;;;;2051847;28;20086;-88
2024/04/01 01:03:27;;;;;;;6.78;6.10;;;;;;;;;;2056527;28;20034;-86
2024/04/01 01:04:46;;;;;;;7.03;6.35;;;;;;;;;;2063843;28;20114;-89
2024/04/01 01:06:08;;;;;;;6.78;5.75;;;;;;;;;;2051287;28;20035;-87
2024/04/01 01:07:27;;;;;;;6.30;5.75;;;;;;;;;;2054854;28;20058;-84
2024/04/01 01:08:46;;;;;;;8.07;6.10;;;;;;;;;;2057338;28;20752;-84
2024/04/01 01:10:06;;;;;;;6.82;6.22;;;;;;;;;;2053960;28;20034;-86
2024/04/01 01:11:26;;;;;;;7.55;6.35;;;;;;;;;;2047373;28;20038;-86
2024/04/01 01:12:45;;;;;;;7.40;6.65;;;;;;;;;;2060207;28;20034;-87
2024/04/01 01:14:04;;;;;;;7.85;5.78;;;;;;;;;;2052153;28;20039;-87
2024/04/01 01:15:23;;;;;;;9.02;6.13;;;;;;;;;;2051231;28;20070;-87
2024/04/01 01:16:42;;;;;;;7.65;5.30;;;;;;;;;;2050590;28;20534;-86
2024/04/01 01:18:07;;;;;;;8.73;5.70;;;;;;;;;;2058468;28;20070;-86
2024/04/01 01:19:30;;;;;;;8.02;5.45;;;;;;;;;;2060762;28;20399;-87
2024/04/01 01:20:49;;;;;;;6.13;5.60;;;;;;;;;;2051753;28;20031;-88
2024/04/01 01:22:08;;;;;;;6.80;6.15;;;;;;;;;;2051393;28;20030;-87
2024/04/01 01:23:27;;;;;;;7.43;5.93;;;;;;;;;;2056134;28;20384;-86
2024/04/01 01:24:46;;;;;;;7.38;5.95;;;;;;;;;;2060066;28;20035;-88
2024/04/01 01:26:05;;;;;;;8.35;6.50;;;;;;;;;;2060493;28;20030;-84
2024/04/01 01:27:24;;;;;;;6.93;6.32;;;;;;;;;;2059240;28;20034;-84
2024/04/01 01:28:43;;;;;;;9.10;6.60;;;;;;;;;;2053127;28;20030;-80
2024/04/01 01:30:03;;;;;;;7.20;6.47;;;;;;;;;;2056222;28;20394;-80
2024/04/01 01:31:22;;;;;;;7.63;7.00;;;;;;;;;;2049805;28;20039;-80
2024/04/01 01:32:49;;;;;;;8.13;6.22;;;;;;;;;;2056004;28;20031;-80
2024/04/01 01:34:08;;;;;;;7.20;6.47;;;;;;;;;;2058754;28;20498;-81
2024/04/01 01:35:28;;;;;;;6.65;6.15;;;;;;;;;;2051607;28;20667;-82
2024/04/01 01:36:47;;;;;;;7.10;6.50;;;;;;;;;;2056289;28;20372;-79
2024/04/01 01:38:06;;;;;;;6.60;6.00;;;;;;;;;;2061399;28;20041;-80
2024/04/01 01:39:25;;;;;;;8.52;6.57;;;;;;;;;;2059474;28;20511;-81
2024/04/01 01:40:43;;;;;;;8.27;6.63;;;;;;;;;;2052233;28;20027;-79
2024/04/01 01:42:03;;;;;;;8.30;6.43;;;;;;;;;;2055939;28;20527;-80
2024/04/01 01:43:22;;;;;;;7.63;6.45;;;;;;;;;;2052743;28;20031;-82
2024/04/01 01:44:41;;;;;;;8.43;6.25;;;;;;;;;;2047520;28;20035;-83
2024/04/01 01:46:02;;;;;;;7.00;6.30;;;;;;;;;;2049524;28;20031;-81
2024/04/01 01:47:21;;;;;;;9.82;6.50;;;;;;;;;;2054497;28;20031;-81
2024/04/01 01:48:40;;;;;;;9.35;6.13;;;;;;;;;;2051995;28;20040;-81
2024/04/01 01:50:00;;;;;;;8.60;6.40;;;;;;;;;;2055706;28;20054;-80
2024/04/01 01:51:20;;;;;;;9.50;7.00;;;;;;;;;;2052540;28;20026;-82
2024/04/01 01:52:42;;;;;;;7.45;6.68;;;;;;;;;;2047601;28;20456;-82
2024/04/01 01:54:01;;;;;;;8.60;7.00;;;;;;;;;;2049747;28;20030;-82
2024/04/01 01:55:21;;;;;;;7.45;6.63;;;;;;;;;;2047710;28;20545;-78
2024/04/01 01:56:46;;;;;;;6.95;5.97;;;;;;;;;;2052927;28;20027;-80
2024/04/01 01:58:10;;;;;;;10.27;6.60;;;;;;;;;;2051472;28;20036;-80
2024/04/01 01:59:29;;;;;;;7.75;7.00;;;;;;;;;;2052812;28;20113;-80
2024/04/01 02:00:49;;;;;;;8.70;6.90;;;;;;;;;;2050747;28;20027;-81
2024/04/01 02:02:08;;;;;;;8.15;7.10;;;;;;;;;;2055665;28;20034;-79
2024/04/01 02:03:28;;;;;;;8.30;7.53;;;;;;;;;;2050699;28;20066;-79
2024/04/01 02:04:47;;;;;;;9.27;7.47;;;;;;;;;;2051946;28;20031;-81
2024/04/01 02:06:06;;;;;;;9.68;8.13;;;;;;;;;;2055680;28;20082;-83
2024/04/01 02:07:25;;;;;;;9.60;8.07;;;;;;;;;;2051326;28;20035;-82
2024/04/01 02:08:44;;;;;;;9.70;7.72;;;;;;;;;;2050647;28;20051;-80
2024/04/01 02:10:03;;;;;;;7.95;7.25;;;;;;;;;;2049141;28;20074;-82
2024/04/01 02:11:23;;;;;;;8.50;7.20;;;;;;;;;;2054936;28;20030;-82
2024/04/01 02:12:44;;;;;;;9.00;6.38;;;;;;;;;;2052274;28;20031;-80
2024/04/01 02:14:03;;;;;;;6.90;6.20;;;;;;;;;;2056942;28;20042;-81
2024/04/01 02:15:23;;;;;;;6.72;6.13;;;;;;;;;;2052075;28;20031;-82
2024/04/01 02:16:42;;;;;;;7.47;6.20;;;;;;;;;;2052692;28;20023;-80
2024/04/01 02:18:07;;;;;;;8.57;6.68;;;;;;;;;;2054283;28;20038;-82
2024/04/01 02:19:28;;;;;;;6.75;6.05;;;;;;;;;;2054484;28;20038;-81
2024/04/01 02:20:51;;;;;;;7.20;6.10;;;;;;;;;;2055590;28;20450;-81
2024/04/01 02:22:12;;;;;;;6.85;6.22;;;;;;;;;;2054322;28;20043;-78
2024/04/01 02:23:34;;;;;;;6.88;6.10;;;;;;;;;;2058256;28;20034;-79
2024/04/01 02:24:53;;;;;;;6.63;5.97;;;;;;;;;;2061523;28;20027;-81
2024/04/01 02:26:12;;;;;;;7.25;5.85;;;;;;;;;;2052705;28;22804;-82
2024/04/01 02:27:31;;;;;;;6.30;5.85;;;;;;;;;;2051477;28;20063;-81
2024/04/01 02:28:50;;;;;;;7.25;5.55;;;;;;;;;;2057129;28;20031;-82
2024/04/01 02:30:15;;;;;;;8.50;5.65;;;;;;;;;;2054910;28;20020;-82
2024/04/01 02:31:34;;;;;;;7.80;5.07;;;;;;;;;;2050404;28;20019;-81
2024/04/01 02:32:53;;;;;;;7.72;5.95;;;;;;;;;;2051280;28;20026;-82
2024/04/01 02:34:11;;;;;;;5.95;5.35;;;;;;;;;;2053015;28;20039;-82
2024/04/01 02:35:30;;;;;;;10.35;6.45;;;;;;;;;;2053173;28;20038;-83
2024/04/01 02:36:49;;;;;;;9.60;5.65;;;;;;;;;;2048719;28;20118;-81
2024/04/01 02:38:08;;;;;;;9.15;5.90;;;;;;;;;;2047911;28;20118;-80
2024/04/01 02:39:27;;;;;;;6.25;5.55;;;;;;;;;;2059101;28;20027;-81
2024/04/01 02:40:47;;;;;;;6.43;5.82;;;;;;;;;;2054558;28;20990;-82
2024/04/01 02:42:08;;;;;;;9.43;5.75;;;;;;;;;;2059478;28;20035;-82
2024/04/01 02:43:29;;;;;;;6.72;6.15;;;;;;;;;;2054892;28;20484;-82
2024/04/01 02:44:48;;;;;;;6.32;5.60;;;;;;;;;;2057507;28;20030;-83
2024/04/01 02:46:07;;;;;;;6.82;6.20;;;;;;;;;;2054209;28;20432;-82
2024/04/01 02:47:26;;;;;;;9.27;6.30;;;;;;;;;;2050343;28;20157;-83
2024/04/01 02:48:46;;;;;;;7.03;6.32;;;;;;;;;;2052877;28;20113;-84
2024/04/01 02:50:05;;;;;;;6.43;5.80;;;;;;;;;;2058695;28;20140;-82
2024/04/01 02:51:23;;;;;;;6.50;5.95;;;;;;;;;;2054554;28;20038;-84
2024/04/01 02:52:42;;;;;;;9.60;6.50;;;;;;;;;;2052829;28;20026;-81
2024/04/01 02:54:02;;;;;;;7.68;6.30;;;;;;;;;;2054823;28;20105;-82
2024/04/01 02:55:21;;;;;;;7.10;6.18;;;;;;;;;;2052005;28;20046;-82
2024/04/01 02:56:40;;;;;;;7.65;6.45;;;;;;;;;;2058921;28;20102;-82
2024/04/01 02:57:59;;;;;;;6.90;6.30;;;;;;;;;;2054495;28;20035;-84
2024/04/01 02:59:18;;;;;;;8.90;6.75;;;;;;;;;;2059551;28;20042;-81
2024/04/01 03:00:45;;;;;;;7.93;7.22;;;;;;;;;;2061284;28;20064;-81
2024/04/01 03:02:04;;;;;;;7.28;6.57;;;;;;;;;;2061428;28;20039;-82
2024/04/01 03:03:23;;;;;;;10.43;6.93;;;;;;;;;;2054020;28;20035;-81
2024/04/01 03:04:43;;;;;;;9.43;7.55;;;;;;;;;;2053281;28;20042;-82
2024/04/01 03:06:02;;;;;;;7.90;7.13;;;;;;;;;;2050758;28;20118;-82
2024/04/01 03:07:25;;;;;;;7.93;7.13;;;;;;;;;;2058687;28;20058;-81
2024/04/01 03:08:46;;;;;;;8.65;7.45;;;;;;;;;;2054247;28;20516;-83
2024/04/01 03:10:06;;;;;;;10.23;7.00;;;;;;;;;;2052804;28;20070;-82
2024/04/01 03:11:25;;;;;;;12.60;8.18;;;;;;;;;;2053340;28;20031;-81
2024/04/01 03:12:45;;;;;;;9.60;7.97;;;;;;;;;;2058671;28;20647;-82
2024/04/01 03:14:05;;;;;;;8.23;7.53;;;;;;;;;;2063056;28;20035;-80
2024/04/01 03:15:24;;;;;;;8.45;7.60;;;;;;;;;;2053831;28;20066;-82
2024/04/01 03:16:43;;;;;;;9.32;8.43;;;;;;;;;;2059576;28;20027;-81
2024/04/01 03:18:02;;;;;;;10.27;8.32;;;;;;;;;;2060686;28;20097;-82
2024/04/01 03:19:22;;;;;;;10.70;9.13;;;;;;;;;;2055097;28;20042;-83
2024/04/01 03:20:41;;;;;;;9.55;8.65;;;;;;;;;;2050419;28;20536;-81
2024/04/01 03:21:59;;;;;;;10.13;8.98;;;;;;;;;;2055533;28;20095;-81
2024/04/01 03:23:18;;;;;;;10.20;9.20;;;;;;;;;;2049848;28;20503;-83
2024/04/01 03:24:37;;;;;;;10.20;8.98;;;;;;;;;;2050304;28;20039;-82
2024/04/01 03:25:56;;;;;;;11.10;9.25;;;;;;;;;;2050703;28;20138;-82
2024/04/01 03:27:15;;;;;;;10.75;8.98;;;;;;;;;;2051238;28;20035;-84
2024/04/01 03:28:35;;;;;;;11.43;9.68;;;;;;;;;;2058927;28;20419;-82
2024/04/01 03:29:54;;;;;;;13.05;9.48;;;;;;;;;;2054839;28;20129;-82
2024/04/01 03:31:13;;;;;;;12.73;9.27;;;;;;;;;;2058522;28;20046;-83
2024/04/01 03:32:32;;;;;;;14.00;10.13;;;;;;;;;;2055016;28;20062;-83
2024/04/01 03:33:54;;;;;;;9.63;8.73;;;;;;;;;;2054164;28;20031;-80
2024/04/01 03:35:16;;;;;;;10.02;9.07;;;;;;;;;;2054776;28;20039;-83
2024/04/01 03:36:37;;;;;;;10.32;9.18;;;;;;;;;;2051289;28;20099;-84
2024/04/01 03:37:56;;;;;;;12.40;10.40;;;;;;;;;;2060267;28;20031;-82
2024/04/01 03:39:17;;;;;;;15.10;9.88;;;;;;;;;;2061459;28;20022;-83
2024/04/01 03:40:39;;;;;;;12.95;9.77;;;;;;;;;;2060344;28;20026;-82
2024/04/01 03:41:59;;;;;;;10.30;9.13;;;;;;;;;;2061691;28;20030;-82
2024/04/01 03:43:19;;;;;;;10.98;9.52;;;;;;;;;;2053430;28;20106;-81
2024/04/01 03:44:38;;;;;;;10.55;9.27;;;;;;;;;;2057381;28;20018;-83
2024/04/01 03:46:01;;;;;;;12.98;9.52;;;;;;;;;;2053787;28;20031;-83
2024/04/01 03:47:20;;;;;;;9.75;8.85;;;;;;;;;;2059021;28;20050;-83
2024/04/01 03:48:42;;;;;;;11.50;9.25;;;;;;;;;;2055025;28;21119;-82
2024/04/01 03:50:02;;;;;;;11.48;9.60;;;;;;;;;;2056829;28;20079;-81
2024/04/01 03:51:21;;;;;;;11.07;9.43;;;;;;;;;;2061753;28;20045;-82
2024/04/01 03:52:40;;;;;;;11.10;10.00;;;;;;;;;;2053932;28;20030;-82
2024/04/01 03:54:02;;;;;;;11.63;9.05;;;;;;;;;;2056978;28;20042;-82
2024/04/01 03:55:21;;;;;;;11.73;10.60;;;;;;;;;;2053216;28;20047;-81
2024/04/01 03:56:40;;;;;;;13.25;9.80;;;;;;;;;;2048698;28;20030;-81
2024/04/01 03:57:58;;;;;;;12.60;10.18;;;;;;;;;;2058391;28;20030;-79
2024/04/01 03:59:21;;;;;;;14.65;10.32;;;;;;;;;;2052438;28;20942;-81
2024/04/01 04:00:40;;;;;;;13.50;10.57;;;;;;;;;;2050036;28;20043;-83
2024/04/01 04:01:59;;;;;;;12.27;10.13;;;;;;;;;;2056867;28;20030;-81
2024/04/01 04:03:19;;;;;;;13.18;9.88;;;;;;;;;;2061313;28;20053;-81
2024/04/01 04:04:41;;;;;;;12.60;10.00;;;;;;;;;;2061182;28;20479;-80
2024/04/01 04:06:00;;;;;;;14.60;10.32;;;;;;;;;;2052147;28;20492;-81
2024/04/01 04:07:19;;;;;;;13.02;9.35;;;;;;;;;;2058759;28;20039;-83
2024/04/01 04:08:37;;;;;;;10.95;9.65;;;;;;;;;;2053680;28;20055;-80
2024/04/01 04:09:56;;;;;;;12.23;9.75;;;;;;;;;;2058067;28;20022;-81
2024/04/01 04:11:16;;;;;;;9.65;8.65;;;;;;;;;;2061518;28;20026;-79
2024/04/01 04:12:35;;;;;;;11.00;8.25;;;;;;;;;;2060634;28;20026;-80
2024/04/01 04:13:54;;;;;;;10.40;9.38;;;;;;;;;;2062167;28;20110;-82
2024/04/01 04:15:14;;;;;;;11.07;9.02;;;;;;;;;;2059921;28;20031;-82
2024/04/01 04:16:33;;;;;;;10.70;8.05;;;;;;;;;;2054872;28;20023;-80
2024/04/01 04:17:52;;;;;;;9.43;7.90;;;;;;;;;;2050178;28;20023;-81
2024/04/01 04:19:11;;;;;;;11.05;7.47;;;;;;;;;;2057787;28;20034;-80
2024/04/01 04:20:31;;;;;;;8.70;7.90;;;;;;;;;;2060121;28;20074;-81
2024/04/01 04:21:50;;;;;;;9.48;7.90;;;;;;;;;;2063186;28;20077;-84
2024/04/01 04:23:09;;;;;;;7.82;6.95;;;;;;;;;;2052342;28;20087;-84
2024/04/01 04:24:29;;;;;;;6.72;6.15;;;;;;;;;;2048202;28;20030;-82
2024/04/01 04:25:48;;;;;;;7.68;6.60;;;;;;;;;;2056313;28;20440;-82
2024/04/01 04:27:08;;;;;;;7.40;6.70;;;;;;;;;;2051825;28;20054;-82
2024/04/01 04:28:27;;;;;;;8.13;7.32;;;;;;;;;;2048497;28;20043;-83
2024/04/01 04:29:46;;;;;;;8.60;6.57;;;;;;;;;;2056381;28;20034;-79
2024/04/01 04:31:05;;;;;;;10.80;8.00;;;;;;;;;;2049891;28;20039;-82
2024/04/01 04:32:25;;;;;;;8.80;7.40;;;;;;;;;;2049543;28;20779;-81
2024/04/01 04:33:44;;;;;;;7.78;7.07;;;;;;;;;;2058076;28;20042;-80
2024/04/01 04:35:03;;;;;;;9.02;8.13;;;;;;;;;;2051791;28;20034;-82
2024/04/01 04:36:23;;;;;;;9.48;7.80;;;;;;;;;;2050265;28;20141;-81
2024/04/01 04:37:42;;;;;;;9.30;7.63;;;;;;;;;;2056999;28;20030;-84
2024/04/01 04:39:01;;;;;;;11.88;8.13;;;;;;;;;;2052610;28;20031;-82
2024/04/01 04:40:20;;;;;;;11.07;7.90;;;;;;;;;;2049928;28;20041;-82
2024/04/01 04:41:39;;;;;;;8.15;7.35;;;;;;;;;;2049729;28;20035;-82
2024/04/01 04:42:58;;;;;;;10.48;8.23;;;;;;;;;;2049477;28;20452;-82
2024/04/01 04:44:20;;;;;;;10.27;7.80;;;;;;;;;;2049530;28;20035;-78
2024/04/01 04:45:47;;;;;;;8.77;7.57;;;;;;;;;;2058197;28;20026;-82
2024/04/01 04:47:07;;;;;;;8.65;7.78;;;;;;;;;;2053553;28;20074;-82
2024/04/01 04:48:28;;;;;;;9.30;8.27;;;;;;;;;;2048115;28;20027;-81
2024/04/01 04:49:48;;;;;;;8.50;7.55;;;;;;;;;;2057905;28;20042;-83
2024/04/01 04:51:07;;;;;;;10.85;7.82;;;;;;;;;;2060409;28;20026;-79
2024/04/01 04:52:32;;;;;;;9.25;8.32;;;;;;;;;;2062174;28;20403;-80
2024/04/01 04:53:51;;;;;;;9.43;7.25;;;;;;;;;;2053807;28;20026;-79
2024/04/01 04:55:41;;;;;;;10.77;7.93;;;;;;;;;;2057019;28;20447;-86
2024/04/01 04:57:03;;;;;;;10.93;7.95;;;;;;;;;;2060479;28;21161;-82
2024/04/01 04:58:43;;;;;;;8.90;7.60;;;;;;;;;;2052380;28;21338;-81
2024/04/01 05:00:04;;;;;;;10.18;8.73;;;;;;;;;;2062864;28;20467;-81
2024/04/01 05:01:42;;;;;;;11.93;8.38;;;;;;;;;;2062800;28;20122;-83
2024/04/01 05:03:01;;;;;;;13.65;8.75;;;;;;;;;;2054814;28;20149;-82
2024/04/01 05:04:23;;;;;;;11.50;8.35;;;;;;;;;;2049485;28;20039;-82
2024/04/01 05:05:42;;;;;;;9.60;7.88;;;;;;;;;;2049070;28;20038;-84
2024/04/01 05:07:05;;;;;;;11.82;8.63;;;;;;;;;;2048739;28;20074;-82
2024/04/01 05:08:25;;;;;;;11.63;8.52;;;;;;;;;;2049796;28;20066;-83
2024/04/01 05:09:44;;;;;;;13.63;8.95;;;;;;;;;;2057169;28;20042;-84
2024/04/01 05:11:13;;;;;;;13.75;9.52;;;;;;;;;;2061382;28;20511;-83
2024/04/01 05:12:47;;;;;;;12.73;9.00;;;;;;;;;;2044271;28;20071;-83
2024/04/01 05:14:30;;;;;;;14.02;8.55;;;;;;;;;;2055089;28;20031;-84
2024/04/01 05:15:51;;;;;;;12.55;8.10;;;;;;;;;;2065119;28;20018;-81
2024/04/01 05:17:47;;;;;;;12.50;8.30;;;;;;;;;;2064905;28;20023;-82
2024/04/01 05:20:53;;;;;;;14.77;8.57;;;;;;;;;;2063641;28;20464;-83
2024/04/01 05:22:12;;;;;;;12.70;9.15;;;;;;;;;;2064748;28;20030;-83
2024/04/01 05:24:00;;;;;;;13.95;8.20;;;;;;;;;;2057920;28;20023;-82
2024/04/01 05:25:19;;;;;;;24.13;9.23;;;;;;;;;;2051339;28;20036;-81
2024/04/01 05:26:41;;;;;;;14.35;9.40;;;;;;;;;;2053104;28;20030;-82
2024/04/01 05:28:00;;;;;;;11.67;9.03;;;;;;;;;;2062835;28;20143;-82
2024/04/01 05:29:19;;;;;;;15.35;8.77;;;;;;;;;;2064572;28;20232;-82
2024/04/01 05:30:38;;;;;;;9.93;8.63;;;;;;;;;;2056440;28;20031;-82
2024/04/01 05:31:58;;;;;;;10.52;7.85;;;;;;;;;;2061166;28;20496;-82
2024/04/01 05:33:18;;;;;;;11.07;8.52;;;;;;;;;;2064379;28;20062;-81
2024/04/01 05:34:37;;;;;;;12.57;8.68;;;;;;;;;;2055999;28;20035;-82
2024/04/01 05:35:56;;;;;;;9.52;8.15;;;;;;;;;;2061665;28;20022;-82
2024/04/01 05:37:15;;;;;;;14.25;9.38;;;;;;;;;;2055927;28;20481;-82
2024/04/01 05:38:34;;;;;;;15.10;9.45;;;;;;;;;;2050054;28;20307;-83
2024/04/01 05:39:56;;;;;;;17.95;10.68;;;;;;;;;;2056913;28;20070;-82
2024/04/01 05:41:17;;;;;;;13.73;8.80;;;;;;;;;;2060053;28;20106;-84
2024/04/01 05:42:36;;;;;;;14.98;8.75;;;;;;;;;;2051786;28;20042;-82
2024/04/01 05:43:55;;;;;;;16.80;9.82;;;;;;;;;;2057727;28;20027;-84
2024/04/01 05:45:14;;;;;;;14.82;9.82;;;;;;;;;;2051907;28;20528;-83
2024/04/01 05:46:36;;;;;;;14.65;9.65;;;;;;;;;;2050223;28;20038;-83
2024/04/01 05:47:55;;;;;;;15.90;9.63;;;;;;;;;;2056133;28;20476;-82
2024/04/01 05:49:17;;;;;;;16.02;10.63;;;;;;;;;;2061812;28;20400;-82
2024/04/01 05:50:38;;;;;;;17.92;10.80;;;;;;;;;;2052721;28;20061;-82
2024/04/01 05:51:57;;;;;;;17.50;9.43;;;;;;;;;;2058054;28;20023;-82
2024/04/01 05:53:23;;;;;;;15.73;10.30;;;;;;;;;;2062186;28;20058;-83
2024/04/01 05:54:42;;;;;;;18.92;10.60;;;;;;;;;;2054372;28;20122;-81
2024/04/01 05:56:05;;;;;;;15.68;9.98;;;;;;;;;;2057771;28;20034;-82
2024/04/01 05:57:24;;;;;;;20.25;11.00;;;;;;;;;;2052391;28;20102;-81
2024/04/01 05:58:43;;;;;;;17.95;10.15;;;;;;;;;;2059023;28;20091;-82
2024/04/01 06:00:06;;;;;;;23.42;11.30;;;;;;;;;;2053552;28;20521;-82
2024/04/01 06:01:25;;;;;;;15.32;10.18;;;;;;;;;;2059052;28;23351;-82
2024/04/01 06:02:44;;;;;;;16.88;10.93;;;;;;;;;;2059474;28;20034;-82
2024/04/01 06:04:03;;;;;;;16.83;9.57;;;;;;;;;;2052792;28;20115;-82
2024/04/01 06:05:22;;;;;;;16.80;10.60;;;;;;;;;;2056296;28;20034;-83
2024/04/01 06:06:44;;;;;;;20.13;10.93;;;;;;;;;;2063009;28;20109;-82
2024/04/01 06:08:03;;;;;;;19.67;11.50;;;;;;;;;;2053315;28;20042;-82
2024/04/01 06:09:22;;;;;;;19.38;10.95;;;;;;;;;;2054019;28;20288;-87
2024/04/01 06:10:41;;;;;;;20.90;12.13;;;;;;;;;;2061513;28;20384;-86
2024/04/01 06:12:00;;;;;;;20.30;10.85;;;;;;;;;;2052472;28;20117;-86
2024/04/01 06:13:19;;;;;;;26.30;11.43;;;;;;;;;;2057037;28;20038;-86
2024/04/01 06:14:38;;;;;;;16.33;10.70;;;;;;;;;;2060241;28;20042;-86
2024/04/01 06:15:56;;;;;;;17.80;10.75;;;;;;;;;;2059287;28;20034;-83
2024/04/01 06:17:15;;;;;;;17.13;11.13;;;;;;;;;;2052785;28;20035;-83
2024/04/01 06:18:34;;;;;;;21.35;11.50;;;;;;;;;;2056856;28;20066;-85
2024/04/01 06:19:53;;;;;;;21.95;12.25;;;;;;;;;;2056723;28;20035;-87
2024/04/01 06:21:13;;;;;;;19.42;11.15;;;;;;;;;;2050133;28;20134;-85
2024/04/01 06:22:32;;;;;;;17.88;10.60;;;;;;;;;;2053353;28;20042;-86
2024/04/01 06:23:50;;;;;;;20.02;11.57;;;;;;;;;;2058337;28;20027;-86
2024/04/01 06:25:10;;;;;;;20.33;11.70;;;;;;;;;;2054064;28;20035;-83
2024/04/01 06:26:28;;;;;;;19.83;10.23;;;;;;;;;;2057444;28;20038;-85
2024/04/01 06:27:47;;;;;;;18.20;11.13;;;;;;;;;;2053718;28;20031;-87
2024/04/01 06:29:18;;;;;;;19.02;10.75;;;;;;;;;;2057138;28;20042;-86
2024/04/01 06:30:38;;;;;;;19.45;11.45;;;;;;;;;;2053419;28;20027;-85
2024/04/01 06:31:57;;;;;;;22.48;11.50;;;;;;;;;;2056684;28;20049;-86
2024/04/01 06:33:17;;;;;;;19.60;11.88;;;;;;;;;;2054501;28;20050;-85
2024/04/01 06:34:36;;;;;;;21.67;11.82;;;;;;;;;;2048418;28;20031;-85
2024/04/01 06:35:58;;;;;;;23.35;12.18;;;;;;;;;;2050817;28;20109;-83
2024/04/01 06:37:18;;;;;;;23.00;12.20;;;;;;;;;;2058822;28;20407;-85
2024/04/01 06:38:40;;;;;;;23.42;12.48;;;;;;;;;;2053479;28;20023;-89
2024/04/01 06:39:59;;;;;;;20.27;11.95;;;;;;;;;;2058125;28;20454;-87
2024/04/01 06:41:36;;;;;;;23.40;11.52;;;;;;;;;;2053103;28;20673;-88
2024/04/01 06:42:58;;;;;;;19.52;11.75;;;;;;;;;;2052100;28;20042;-86
2024/04/01 06:44:17;;;;;;;19.08;11.35;;;;;;;;;;2058185;28;20030;-85
2024/04/01 06:45:35;;;;;;;17.38;11.40;;;;;;;;;;2061328;28;20035;-85
2024/04/01 06:46:54;;;;;;;19.35;11.20;;;;;;;;;;2051980;28;20035;-84
2024/04/01 06:48:16;;;;;;;23.23;12.35;;;;;;;;;;2058875;28;20030;-85
2024/04/01 06:49:35;;;;;;;19.83;11.85;;;;;;;;;;2061549;28;20120;-85
2024/04/01 06:51:11;;;;;;;20.13;11.48;;;;;;;;;;2061435;28;20434;-87
2024/04/01 06:52:39;;;;;;;21.05;11.15;;;;;;;;;;2054718;28;20484;-86
2024/04/01 06:54:12;;;;;;;22.35;11.27;;;;;;;;;;2054248;28;20035;-85
2024/04/01 06:55:32;;;;;;;23.13;11.82;;;;;;;;;;2051281;28;20038;-84
2024/04/01 06:56:55;;;;;;;20.33;11.52;;;;;;;;;;2058746;28;20094;-86
2024/04/01 06:58:38;;;;;;;;;;;;;;;;;;;;;
2024/04/01 06:59:57;;;;;;;;;;;;;;;;;;2062220;28;20660;-86
2024/04/01 07:01:21;;;;;;;17.58;10.90;;;;;;;;;;2061297;28;19906;-88
2024/04/01 07:03:17;;;;;;;18.83;10.27;;;;;;;;;;2052790;28;20039;-87
2024/04/01 07:04:36;;;;;;;16.10;10.55;;;;;;;;;;2056323;28;20031;-89
2024/04/01 07:12:30;;;;;;;;;;;;;;;;;;;;;
2024/04/01 07:16:13;;;;;;;15.70;10.45;;;;;;;;;;2056394;28;20034;-88
2024/04/01 07:25:50;;;;;;;16.98;9.50;;;;;;;;;;2002903;29;20029;-83
2024/04/01 07:27:10;;;;;;;;;;;;;;;;;;2008192;29;20068;-84
2024/04/01 07:28:32;;;;;;;11.10;8.40;;;;;;;;;;2005148;29;19920;-84
2024/04/01 07:29:53;;;;;;;13.68;8.90;;;;;;;;;;2007001;29;20037;-85
2024/04/01 07:31:12;;;;;;;10.57;7.95;;;;;;;;;;2004058;29;21136;-85
2024/04/01 07:32:34;;;;;;;13.50;8.23;;;;;;;;;;2000107;29;20045;-83
2024/04/01 07:34:02;;;;;;;11.38;7.88;;;;;;;;;;2001996;29;20500;-82
2024/04/01 07:35:26;;;;;;;13.45;8.60;;;;;;;;;;2022171;29;20569;-82
2024/04/01 07:36:46;;;;;;;16.45;8.40;;;;;;;;;;2012837;29;20036;-86
2024/04/01 07:38:05;;;;;;;11.80;8.20;;;;;;;;;;2051503;28;20035;-84
2024/04/01 07:39:27;;;;;;;14.20;8.88;;;;;;;;;;2049814;28;20046;-82
2024/04/01 07:41:07;;;;;;;17.50;9.20;;;;;;;;;;2060701;28;20026;-85
2024/04/01 07:42:26;;;;;;;11.63;8.15;;;;;;;;;;2059976;28;20053;-84
2024/04/01 07:43:45;;;;;;;14.95;9.40;;;;;;;;;;2054375;28;20031;-85
2024/04/01 07:45:05;;;;;;;12.18;8.50;;;;;;;;;;2057418;28;20035;-84
2024/04/01 07:46:26;;;;;;;10.93;8.38;;;;;;;;;;2052532;28;20124;-83
2024/04/01 07:47:45;;;;;;;12.35;8.23;;;;;;;;;;2053808;28;20030;-84
2024/04/01 07:49:05;;;;;;;11.00;8.70;;;;;;;;;;2056744;28;20038;-82
2024/04/01 07:50:24;;;;;;;11.63;8.35;;;;;;;;;;2054039;28;20509;-83
2024/04/01 07:51:43;;;;;;;13.38;8.07;;;;;;;;;;2056283;28;20030;-83
2024/04/01 07:53:06;;;;;;;12.32;7.70;;;;;;;;;;2060191;28;20026;-82
2024/04/01 07:54:31;;;;;;;12.52;8.07;;;;;;;;;;2061113;28;20038;-83
2024/04/01 07:55:59;;;;;;;13.63;7.40;;;;;;;;;;2054398;28;20039;-85
2024/04/01 07:57:19;;;;;;;12.63;7.07;;;;;;;;;;2048481;28;20027;-82
2024/04/01 07:58:39;;;;;;;15.32;7.35;;;;;;;;;;2060710;28;20475;-83
2024/04/01 08:00:08;;;;;;;8.73;7.53;;;;;;;;;;2052747;28;21220;-83
2024/04/01 08:01:27;;;;;;;11.48;7.20;;;;;;;;;;2062352;28;20112;-83
2024/04/01 08:02:46;;;;;;;11.20;7.05;;;;;;;;;;2058800;28;20038;-82
2024/04/01 08:04:05;;;;;;;12.70;8.00;;;;;;;;;;2062583;28;20606;-81
2024/04/01 08:05:24;;;;;;;8.63;6.95;;;;;;;;;;2051382;28;20420;-83
2024/04/01 08:06:43;;;;;;;11.35;7.93;;;;;;;;;;2051252;28;20030;-80
2024/04/01 08:08:04;;;;;;;12.73;7.55;;;;;;;;;;2054089;28;20031;-81
2024/04/01 08:09:23;;;;;;;10.48;6.85;;;;;;;;;;2059263;28;20039;-81
2024/04/01 08:10:45;;;;;;;14.85;7.07;;;;;;;;;;2058800;28;20515;-82
2024/04/01 08:12:04;;;;;;;11.85;6.32;;;;;;;;;;2059395;28;20034;-81
2024/04/01 08:13:23;;;;;;;10.75;7.13;;;;;;;;;;2051039;28;20113;-81
2024/04/01 08:14:42;;;;;;;7.93;6.47;;;;;;;;;;2056365;28;20352;-82
2024/04/01 08:16:02;;;;;;;18.67;7.90;;;;;;;;;;2051381;28;20019;-83
2024/04/01 08:17:23;;;;;;;14.30;6.70;;;;;;;;;;2055517;28;22247;-81
2024/04/01 08:18:42;;;;;;;7.07;6.25;;;;;;;;;;2055894;28;20035;-82
2024/04/01 08:20:01;;;;;;;9.23;6.32;;;;;;;;;;2058460;28;20019;-82
2024/04/01 08:21:20;;;;;;;6.13;5.53;;;;;;;;;;2050219;28;20508;-81
2024/04/01 08:22:39;;;;;;;10.13;7.13;;;;;;;;;;2054524;28;20476;-81
2024/04/01 08:23:58;;;;;;;7.72;6.00;;;;;;;;;;2058831;28;20026;-81
2024/04/01 08:25:17;;;;;;;7.38;6.05;;;;;;;;;;2055581;28;20030;-82